createdAt,value
2019-03-09T00:01:55.513Z,62.50
2019-03-09T00:04:24.594Z,62.40
2019-03-09T00:06:53.674Z,62.40
2019-03-09T00:09:22.747Z,62.10
2019-03-09T00:11:51.828Z,62.00
2019-03-09T00:14:20.899Z,62.10
2019-03-09T00:16:49.978Z,62.70
2019-03-09T00:19:19.058Z,62.10
2019-03-09T00:21:48.134Z,62.10
2019-03-09T00:24:31.207Z,62.40
2019-03-09T00:27:01.918Z,62.00
2019-03-09T00:29:32.650Z,62.40
2019-03-09T00:32:03.359Z,62.60
2019-03-09T00:34:32.439Z,62.20
2019-03-09T00:37:01.801Z,62.60
2019-03-09T00:39:30.878Z,64.50
2019-03-09T00:41:59.960Z,63.30
2019-03-09T00:44:29.031Z,62.50
2019-03-09T00:46:58.394Z,62.00
2019-03-09T00:49:27.743Z,63.80
2019-03-09T00:51:56.817Z,62.90
2019-03-09T00:54:25.898Z,62.30
2019-03-09T00:56:54.974Z,62.70
2019-03-09T00:59:24.048Z,62.90
2019-03-09T01:01:53.382Z,62.00
2019-03-09T01:04:22.450Z,62.30
2019-03-09T01:06:51.522Z,61.80
2019-03-09T01:09:20.602Z,61.40
2019-03-09T01:11:49.675Z,62.00
2019-03-09T01:14:18.758Z,62.10
2019-03-09T01:16:48.899Z,61.30
2019-03-09T01:19:17.982Z,60.80
2019-03-09T01:21:47.056Z,61.20
2019-03-09T01:24:16.134Z,61.20
2019-03-09T01:26:45.203Z,60.70
2019-03-09T01:29:14.278Z,60.10
2019-03-09T01:31:43.350Z,59.80
2019-03-09T01:34:12.430Z,59.90
2019-03-09T01:36:41.764Z,60.30
2019-03-09T01:39:10.834Z,59.90
2019-03-09T01:41:40.363Z,60.50
2019-03-09T01:44:09.440Z,61.20
2019-03-09T01:46:38.518Z,60.40
2019-03-09T01:49:07.595Z,60.50
2019-03-09T01:51:36.738Z,60.00
2019-03-09T01:54:05.871Z,60.00
2019-03-09T01:56:34.945Z,60.00
2019-03-09T01:59:04.024Z,60.20
2019-03-09T02:01:33.342Z,60.50
2019-03-09T02:04:02.414Z,60.80
2019-03-09T02:06:31.494Z,60.50
2019-03-09T02:09:00.567Z,60.40
2019-03-09T02:11:31.266Z,60.20
2019-03-09T02:14:00.338Z,60.70
2019-03-09T02:16:29.414Z,60.00
2019-03-09T02:18:58.487Z,60.00
2019-03-09T02:21:27.566Z,60.60
2019-03-09T02:23:56.646Z,60.40
2019-03-09T02:26:25.718Z,60.40
2019-03-09T02:28:55.046Z,61.10
2019-03-09T02:31:24.119Z,61.10
2019-03-09T02:33:53.190Z,60.40
2019-03-09T02:36:22.267Z,60.50
2019-03-09T02:38:52.985Z,60.60
2019-03-09T02:41:23.131Z,60.50
2019-03-09T02:43:52.206Z,61.20
2019-03-09T02:46:21.607Z,60.90
2019-03-09T02:48:51.000Z,60.50
2019-03-09T02:51:20.085Z,60.70
2019-03-09T02:53:49.164Z,60.70
2019-03-09T02:56:19.223Z,61.20
2019-03-09T02:58:48.371Z,61.40
2019-03-09T03:01:21.475Z,61.60
2019-03-09T03:03:50.567Z,63.00
2019-03-09T03:06:20.006Z,66.00
2019-03-09T03:08:49.075Z,66.60
2019-03-09T03:11:18.155Z,66.30
2019-03-09T03:13:47.230Z,66.60
2019-03-09T03:16:16.298Z,66.20
2019-03-09T03:18:45.374Z,65.50
2019-03-09T03:21:14.464Z,66.00
2019-03-09T03:23:43.544Z,65.70
2019-03-09T03:26:12.615Z,65.50
2019-03-09T03:28:41.699Z,65.70
2019-03-09T03:31:10.775Z,66.40
2019-03-09T03:33:39.891Z,67.80
2019-03-09T03:36:09.014Z,69.80
2019-03-09T03:38:38.366Z,71.70
2019-03-09T03:41:07.455Z,74.00
2019-03-09T03:43:36.528Z,74.80
2019-03-09T03:46:05.603Z,74.30
2019-03-09T03:48:34.682Z,75.40
2019-03-09T03:51:03.761Z,75.20
2019-03-09T03:53:32.834Z,74.30
2019-03-09T03:56:01.915Z,73.80
2019-03-09T03:58:31.003Z,74.10
2019-03-09T04:01:00.063Z,74.30
2019-03-09T04:03:29.163Z,74.30
2019-03-09T04:05:58.223Z,75.20
2019-03-09T04:08:27.327Z,74.90
2019-03-09T04:10:56.435Z,75.80
2019-03-09T04:13:25.822Z,76.70
2019-03-09T04:15:55.224Z,76.50
2019-03-09T04:18:24.627Z,77.00
2019-03-09T04:20:53.713Z,78.20
2019-03-09T04:23:22.798Z,77.80
2019-03-09T04:25:51.871Z,77.80
2019-03-09T04:28:20.958Z,78.20
2019-03-09T04:30:50.322Z,77.50
2019-03-09T04:33:19.390Z,77.60
2019-03-09T04:35:48.463Z,77.10
2019-03-09T04:38:17.539Z,77.80
2019-03-09T04:40:46.622Z,78.10
2019-03-09T04:43:15.690Z,78.80
2019-03-09T04:45:44.762Z,78.00
2019-03-09T04:48:13.854Z,77.30
2019-03-09T04:50:42.926Z,77.60
2019-03-09T04:53:12.027Z,78.10
2019-03-09T04:55:42.078Z,77.60
2019-03-09T04:58:11.147Z,78.00
2019-03-09T05:00:40.502Z,78.50
2019-03-09T05:03:09.906Z,78.70
2019-03-09T05:05:38.986Z,78.90
2019-03-09T05:08:15.043Z,79.50
2019-03-09T05:10:49.930Z,79.90
2019-03-09T05:13:25.250Z,80.20
2019-03-09T05:15:53.633Z,79.10
2019-03-09T05:18:22.639Z,79.20
2019-03-09T05:20:51.705Z,79.00
2019-03-09T05:23:20.819Z,79.00
2019-03-09T05:25:50.212Z,79.30
2019-03-09T05:28:19.278Z,79.10
2019-03-09T05:30:48.358Z,79.00
2019-03-09T05:33:17.438Z,79.50
2019-03-09T05:35:46.510Z,79.20
2019-03-09T05:38:15.593Z,79.70
2019-03-09T05:40:44.658Z,79.60
2019-03-09T05:43:14.000Z,79.30
2019-03-09T05:45:43.065Z,79.50
2019-03-09T05:48:12.142Z,79.80
2019-03-09T05:50:41.211Z,80.00
2019-03-09T05:53:15.338Z,80.10
2019-03-09T05:55:45.401Z,79.70
2019-03-09T05:58:14.722Z,79.80
2019-03-09T06:00:44.058Z,80.30
2019-03-09T06:03:13.137Z,80.60
2019-03-09T06:05:44.562Z,80.30
2019-03-09T06:08:13.635Z,80.40
2019-03-09T06:10:42.732Z,80.50
2019-03-09T06:13:11.874Z,80.40
2019-03-09T06:15:40.963Z,81.10
2019-03-09T06:18:10.042Z,81.10
2019-03-09T06:20:39.146Z,80.80
2019-03-09T06:23:08.219Z,82.00
2019-03-09T06:25:38.668Z,80.90
2019-03-09T06:28:07.887Z,80.80
2019-03-09T06:30:36.966Z,81.50
2019-03-09T06:33:15.270Z,81.40
2019-03-09T06:35:45.380Z,81.50
2019-03-09T06:38:35.678Z,81.40
2019-03-09T06:41:06.793Z,81.20
2019-03-09T06:43:35.867Z,80.80
2019-03-09T06:46:06.005Z,82.00
2019-03-09T06:48:35.090Z,81.30
2019-03-09T06:51:04.190Z,81.90
2019-03-09T06:53:33.263Z,81.40
2019-03-09T06:56:02.338Z,81.60
2019-03-09T06:58:31.655Z,81.50
2019-03-09T07:01:02.622Z,81.40
2019-03-09T07:03:31.716Z,81.10
2019-03-09T07:06:00.783Z,81.50
2019-03-09T07:08:29.854Z,81.00
2019-03-09T07:10:58.938Z,81.20
2019-03-09T07:13:28.007Z,81.40
2019-03-09T07:15:57.079Z,81.30
2019-03-09T07:18:26.479Z,81.10
2019-03-09T07:20:56.618Z,80.80
2019-03-09T07:23:25.711Z,81.20
2019-03-09T07:25:54.782Z,80.90
2019-03-09T07:28:23.911Z,81.00
2019-03-09T07:30:52.983Z,80.90
2019-03-09T07:33:22.062Z,80.90
2019-03-09T07:35:51.134Z,80.60
2019-03-09T07:38:20.228Z,80.40
2019-03-09T07:40:49.302Z,80.10
2019-03-09T07:43:18.378Z,79.80
2019-03-09T07:45:47.453Z,79.40
2019-03-09T07:48:16.536Z,79.50
2019-03-09T07:50:45.859Z,80.00
2019-03-09T07:53:14.933Z,80.20
2019-03-09T07:55:44.003Z,80.00
2019-03-09T07:58:13.086Z,79.70
2019-03-09T08:00:42.158Z,79.70
2019-03-09T08:03:11.234Z,79.50
2019-03-09T08:05:40.310Z,79.10
2019-03-09T08:08:09.378Z,79.70
2019-03-09T08:10:38.467Z,79.40
2019-03-09T08:13:07.831Z,80.20
2019-03-09T08:15:36.910Z,79.20
2019-03-09T08:18:06.051Z,79.00
2019-03-09T08:20:35.127Z,79.30
2019-03-09T08:23:05.181Z,79.10
2019-03-09T08:25:34.251Z,79.60
2019-03-09T08:28:03.661Z,79.30
2019-03-09T08:30:34.069Z,79.30
2019-03-09T08:33:04.226Z,78.20
2019-03-09T08:35:33.298Z,77.20
2019-03-09T08:38:02.382Z,77.70
2019-03-09T08:40:31.498Z,77.90
2019-03-09T08:43:00.883Z,77.80
2019-03-09T08:45:30.293Z,76.80
2019-03-09T08:47:59.367Z,77.80
2019-03-09T08:50:28.447Z,77.80
2019-03-09T08:52:57.566Z,77.20
2019-03-09T08:55:26.710Z,77.70
2019-03-09T08:57:55.795Z,77.80
2019-03-09T09:00:32.924Z,78.50
2019-03-09T09:03:02.136Z,78.20
2019-03-09T09:05:31.542Z,78.00
2019-03-09T09:08:00.875Z,78.10
2019-03-09T09:10:29.947Z,78.50
2019-03-09T09:12:59.023Z,78.40
2019-03-09T09:15:28.174Z,78.60
2019-03-09T09:17:57.255Z,79.20
2019-03-09T09:20:27.188Z,78.90
2019-03-09T09:22:56.267Z,78.80
2019-03-09T09:25:25.350Z,79.10
2019-03-09T09:27:54.499Z,79.00
2019-03-09T09:30:27.757Z,79.10
2019-03-09T09:32:56.839Z,79.40
2019-03-09T09:35:25.924Z,79.60
2019-03-09T09:37:55.024Z,79.10
2019-03-09T09:40:25.438Z,78.40
2019-03-09T09:42:54.685Z,78.20
2019-03-09T09:45:23.770Z,78.40
2019-03-09T09:47:52.850Z,78.80
2019-03-09T09:50:21.924Z,77.50
2019-03-09T09:52:51.005Z,77.50
2019-03-09T09:55:20.159Z,77.30
2019-03-09T09:57:49.564Z,76.60
2019-03-09T10:00:23.640Z,76.20
2019-03-09T10:02:52.717Z,75.60
2019-03-09T10:05:22.443Z,75.10
2019-03-09T10:07:51.802Z,74.00
2019-03-09T10:10:21.743Z,72.80
2019-03-09T10:12:50.895Z,72.60
2019-03-09T10:15:22.134Z,71.90
2019-03-09T10:17:51.210Z,71.50
2019-03-09T10:20:20.462Z,71.60
2019-03-09T10:22:49.546Z,71.10
2019-03-09T10:25:18.623Z,71.20
2019-03-09T10:27:47.721Z,71.20
2019-03-09T10:30:21.356Z,71.50
2019-03-09T10:32:50.447Z,71.50
2019-03-09T10:35:19.522Z,70.90
2019-03-09T10:37:49.342Z,71.30
2019-03-09T10:40:18.425Z,71.70
2019-03-09T10:42:47.505Z,71.60
2019-03-09T10:45:20.483Z,72.10
2019-03-09T10:47:51.822Z,71.70
2019-03-09T10:50:20.899Z,72.40
2019-03-09T10:52:50.289Z,73.10
2019-03-09T10:55:22.954Z,72.50
2019-03-09T10:57:52.043Z,72.40
2019-03-09T11:00:34.919Z,72.70
2019-03-09T11:03:04.004Z,72.50
2019-03-09T11:05:33.087Z,72.30
2019-03-09T11:08:02.174Z,71.50
2019-03-09T11:10:31.256Z,71.70
2019-03-09T11:13:00.498Z,71.90
2019-03-09T11:15:29.888Z,71.30
2019-03-09T11:17:58.944Z,70.80
2019-03-09T11:20:28.258Z,70.50
2019-03-09T11:22:57.334Z,70.40
2019-03-09T11:25:26.418Z,70.40
2019-03-09T11:27:55.494Z,69.50
2019-03-09T11:30:28.535Z,68.70
2019-03-09T11:32:57.610Z,69.50
2019-03-09T11:35:26.754Z,69.50
2019-03-09T11:37:56.145Z,68.80
2019-03-09T11:40:25.249Z,68.10
2019-03-09T11:42:54.330Z,67.50
2019-03-09T11:45:23.414Z,68.00
2019-03-09T11:47:52.491Z,67.80
2019-03-09T11:50:21.574Z,67.50
2019-03-09T11:52:50.652Z,66.90
2019-03-09T11:55:19.730Z,67.00
2019-03-09T11:57:48.816Z,67.00
2019-03-09T12:00:32.721Z,67.10
2019-03-09T12:03:01.801Z,67.20
2019-03-09T12:05:30.973Z,67.80
2019-03-09T12:08:00.229Z,67.50
2019-03-09T12:10:29.306Z,67.50
2019-03-09T12:12:58.391Z,67.10
2019-03-09T12:15:27.477Z,67.30
2019-03-09T12:17:57.619Z,67.30
2019-03-09T12:20:28.342Z,67.40
2019-03-09T12:23:01.726Z,69.60
2019-03-09T12:25:30.885Z,70.40
2019-03-09T12:28:00.191Z,70.80
2019-03-09T12:30:29.278Z,70.90
2019-03-09T12:32:58.694Z,71.10
2019-03-09T12:35:27.779Z,71.50
2019-03-09T12:37:56.854Z,72.10
2019-03-09T12:40:26.767Z,71.60
2019-03-09T12:42:55.843Z,71.50
2019-03-09T12:45:25.203Z,70.40
2019-03-09T12:47:54.286Z,70.00
2019-03-09T12:50:24.003Z,69.10
2019-03-09T12:52:53.091Z,69.80
2019-03-09T12:55:22.162Z,70.40
2019-03-09T12:57:51.247Z,71.10
2019-03-09T13:00:25.107Z,70.80
2019-03-09T13:02:54.192Z,71.30
2019-03-09T13:05:23.274Z,70.40
2019-03-09T13:07:52.347Z,70.80
2019-03-09T13:10:21.499Z,70.80
2019-03-09T13:12:50.746Z,70.30
2019-03-09T13:15:19.830Z,69.90
2019-03-09T13:17:48.906Z,69.80
2019-03-09T13:20:17.993Z,69.00
2019-03-09T13:22:47.070Z,69.80
2019-03-09T13:25:16.143Z,69.20
2019-03-09T13:27:45.497Z,69.20
2019-03-09T13:30:17.766Z,68.20
2019-03-09T13:32:46.859Z,68.40
2019-03-09T13:35:16.002Z,69.10
2019-03-09T13:37:45.350Z,70.50
2019-03-09T13:40:17.122Z,70.90
2019-03-09T13:42:46.208Z,71.20
2019-03-09T13:45:17.387Z,70.10
2019-03-09T13:47:46.478Z,68.60
2019-03-09T13:50:15.550Z,69.20
2019-03-09T13:52:44.663Z,69.20
2019-03-09T13:55:13.872Z,69.70
2019-03-09T13:57:43.067Z,70.80
2019-03-09T14:00:16.106Z,71.80
2019-03-09T14:02:45.184Z,72.30
2019-03-09T14:05:14.335Z,72.70
2019-03-09T14:07:43.418Z,71.50
2019-03-09T14:10:13.938Z,72.00
2019-03-09T14:12:43.016Z,71.10
2019-03-09T14:15:16.171Z,71.30
2019-03-09T14:17:45.254Z,72.80
2019-03-09T14:20:16.181Z,72.90
2019-03-09T14:22:45.621Z,74.10
2019-03-09T14:25:15.338Z,75.90
2019-03-09T14:27:44.429Z,77.00
2019-03-09T14:30:20.142Z,77.50
2019-03-09T14:32:49.230Z,76.00
2019-03-09T14:35:18.306Z,73.80
2019-03-09T14:37:47.743Z,73.80
2019-03-09T14:40:17.093Z,74.30
2019-03-09T14:42:46.175Z,74.10
2019-03-09T14:45:18.507Z,73.40
2019-03-09T14:47:47.594Z,72.20
2019-03-09T14:50:16.666Z,71.60
2019-03-09T14:52:45.759Z,72.40
2019-03-09T14:55:15.804Z,72.70
2019-03-09T14:57:44.895Z,72.50
2019-03-09T15:00:23.233Z,71.40
2019-03-09T15:02:52.321Z,70.90
2019-03-09T15:05:21.394Z,68.90
2019-03-09T15:07:50.482Z,68.00
2019-03-09T15:10:19.823Z,67.60
2019-03-09T15:12:48.898Z,66.10
2019-03-09T15:15:19.179Z,64.90
2019-03-09T15:17:48.547Z,63.80
2019-03-09T15:20:17.627Z,64.30
2019-03-09T15:22:46.741Z,65.50
2019-03-09T15:25:17.106Z,64.10
2019-03-09T15:27:47.156Z,63.50
2019-03-09T15:30:17.614Z,64.00
2019-03-09T15:32:46.694Z,64.20
2019-03-09T15:35:16.623Z,64.80
2019-03-09T15:37:45.731Z,64.00
2019-03-09T15:40:18.091Z,64.30
2019-03-09T15:42:47.186Z,64.20
2019-03-09T15:45:20.511Z,63.80
2019-03-09T15:47:49.602Z,63.80
2019-03-09T15:50:19.641Z,64.30
2019-03-09T15:52:48.710Z,63.80
2019-03-09T15:55:17.887Z,63.40
2019-03-09T15:57:47.043Z,63.20
2019-03-09T16:00:24.501Z,63.30
2019-03-09T16:02:53.569Z,63.30
2019-03-09T16:05:22.674Z,62.80
2019-03-09T16:07:52.814Z,62.60
2019-03-09T16:10:22.356Z,62.50
2019-03-09T16:26:02.613Z,38.30
2019-03-09T16:28:31.975Z,39.40
2019-03-09T16:31:01.051Z,47.40
2019-03-09T16:33:30.164Z,52.00
2019-03-09T16:35:59.247Z,53.80
2019-03-09T16:38:28.323Z,54.30
2019-03-09T16:40:57.666Z,54.10
2019-03-09T16:43:26.763Z,54.70
2019-03-09T16:45:55.834Z,55.00
2019-03-09T16:48:24.926Z,54.90
2019-03-09T16:50:54.467Z,54.40
2019-03-09T16:53:23.558Z,55.00
2019-03-09T16:55:52.638Z,54.50
2019-03-09T16:58:21.823Z,54.20
2019-03-09T17:00:50.971Z,53.90
2019-03-09T17:03:20.059Z,53.30
2019-03-09T17:05:49.450Z,53.50
2019-03-09T17:08:18.535Z,53.40
2019-03-09T17:10:47.630Z,53.60
2019-03-09T17:13:16.706Z,53.10
2019-03-09T17:15:45.806Z,53.10
2019-03-09T17:18:15.300Z,53.20
2019-03-09T17:20:44.357Z,52.60
2019-03-09T17:23:13.747Z,52.00
2019-03-09T17:25:43.158Z,51.90
2019-03-09T17:28:12.226Z,52.30
2019-03-09T17:30:41.651Z,51.90
2019-03-09T17:33:10.722Z,52.10
2019-03-09T17:35:39.823Z,52.30
2019-03-09T17:38:08.898Z,52.40
2019-03-09T17:40:37.998Z,52.30
2019-03-09T17:43:07.074Z,52.10
2019-03-09T17:45:36.439Z,52.30
2019-03-09T17:48:05.514Z,52.80
2019-03-09T17:50:34.602Z,52.60
2019-03-09T17:53:03.698Z,52.70
2019-03-09T17:55:32.787Z,52.90
2019-03-09T17:58:01.878Z,53.10
2019-03-09T18:00:42.102Z,53.30
2019-03-09T18:03:14.958Z,53.20
2019-03-09T18:05:44.481Z,53.30
2019-03-09T18:08:13.570Z,53.10
2019-03-09T18:10:48.327Z,53.30
2019-03-09T18:13:17.418Z,53.60
2019-03-09T18:15:46.499Z,53.10
2019-03-09T18:18:17.729Z,53.20
2019-03-09T18:20:51.982Z,53.30
2019-03-09T18:23:21.359Z,53.30
2019-03-09T18:25:50.459Z,53.30
2019-03-09T18:28:19.558Z,53.30
2019-03-09T18:30:48.654Z,53.30
2019-03-09T18:33:17.730Z,53.30
2019-03-09T18:35:46.824Z,53.90
2019-03-09T18:38:15.907Z,54.60
2019-03-09T18:40:45.239Z,56.50
2019-03-09T18:43:14.322Z,59.20
2019-03-09T18:45:43.402Z,61.20
2019-03-09T18:48:12.490Z,62.90
2019-03-09T18:50:41.831Z,64.00
2019-03-09T18:53:10.911Z,64.30
2019-03-09T18:55:40.070Z,65.00
2019-03-09T18:58:09.153Z,65.90
2019-03-09T19:00:38.234Z,66.40
2019-03-09T19:03:07.315Z,67.20
2019-03-09T19:05:36.406Z,68.40
2019-03-09T19:08:05.823Z,69.60
2019-03-09T19:10:34.908Z,70.50
2019-03-09T19:13:03.999Z,71.00
2019-03-09T19:15:33.080Z,71.10
2019-03-09T19:18:02.167Z,71.10
2019-03-09T19:20:31.251Z,71.10
2019-03-09T19:23:00.331Z,71.20
2019-03-09T19:25:29.408Z,71.00
2019-03-09T19:27:58.506Z,70.30
2019-03-09T19:30:27.597Z,70.10
2019-03-09T19:33:00.554Z,70.00
2019-03-09T19:35:27.795Z,69.80
2019-03-09T19:37:56.886Z,69.90
2019-03-09T19:40:25.969Z,70.10
2019-03-09T19:42:55.059Z,70.30
2019-03-09T19:45:24.151Z,69.90
2019-03-09T19:47:53.880Z,70.40
2019-03-09T19:50:25.402Z,70.50
2019-03-09T19:52:54.486Z,70.80
2019-03-09T19:55:23.576Z,70.70
2019-03-09T19:57:52.974Z,70.50
2019-03-09T20:00:22.426Z,70.60
2019-03-09T20:02:51.735Z,70.80
2019-03-09T20:05:20.830Z,71.10
2019-03-09T20:07:49.891Z,71.10
2019-03-09T20:10:20.244Z,71.50
2019-03-09T20:12:49.332Z,71.40
2019-03-09T20:15:19.344Z,70.90
2019-03-09T20:17:48.420Z,71.20
2019-03-09T20:20:20.338Z,71.40
2019-03-09T20:22:49.685Z,71.50
2019-03-09T20:25:18.764Z,73.00
2019-03-09T20:27:48.180Z,73.90
2019-03-09T20:30:18.414Z,75.80
2019-03-09T20:32:47.807Z,77.10
2019-03-09T20:35:16.894Z,77.70
2019-03-09T20:37:45.991Z,78.30
2019-03-09T20:40:16.342Z,79.10
2019-03-09T20:42:45.420Z,79.40
2019-03-09T20:45:23.646Z,80.00
2019-03-09T20:47:53.043Z,80.50
2019-03-09T20:50:23.524Z,80.40
2019-03-09T20:52:52.656Z,81.20
2019-03-09T20:55:21.981Z,82.20
2019-03-09T20:57:51.050Z,82.30
2019-03-09T21:00:21.398Z,81.30
2019-03-09T21:02:50.534Z,81.30
2019-03-09T21:05:19.615Z,81.20
2019-03-09T21:07:48.698Z,81.70
2019-03-09T21:10:18.741Z,82.30
2019-03-09T21:12:54.870Z,82.20
2019-03-09T21:15:23.958Z,82.00
2019-03-09T21:17:53.116Z,82.90
2019-03-09T21:20:22.199Z,83.50
2019-03-09T21:22:51.567Z,83.70
2019-03-09T21:25:20.966Z,83.80
2019-03-09T21:27:50.046Z,84.00
2019-03-09T21:30:19.131Z,84.20
2019-03-09T21:32:48.304Z,84.40
2019-03-09T21:35:17.386Z,84.30
2019-03-09T21:37:46.480Z,84.30
2019-03-09T21:40:15.850Z,84.50
2019-03-09T21:42:44.930Z,85.20
2019-03-09T21:45:14.903Z,85.60
2019-03-09T21:47:44.038Z,85.40
2019-03-09T21:50:17.338Z,85.50
2019-03-09T21:52:46.443Z,85.70
2019-03-09T21:55:16.365Z,86.30
2019-03-09T21:57:45.434Z,86.50
2019-03-09T22:00:19.546Z,86.90
2019-03-09T22:02:50.311Z,86.40
2019-03-09T22:05:19.828Z,86.10
2019-03-09T22:07:48.897Z,85.60
2019-03-09T22:10:18.226Z,85.50
2019-03-09T22:12:47.329Z,85.80
2019-03-09T22:15:17.750Z,85.70
2019-03-09T22:17:47.806Z,86.80
2019-03-09T22:20:20.378Z,86.80
2019-03-09T22:22:48.726Z,86.20
2019-03-09T22:25:18.182Z,86.70
2019-03-09T22:27:47.258Z,86.90
2019-03-09T22:30:18.541Z,87.60
2019-03-09T22:32:47.630Z,87.40
2019-03-09T22:35:16.702Z,87.60
2019-03-09T22:37:45.793Z,87.90
2019-03-09T22:40:16.206Z,88.00
2019-03-09T22:42:45.282Z,87.50
2019-03-09T22:45:16.022Z,88.10
2019-03-09T22:47:45.099Z,87.20
2019-03-09T22:50:19.207Z,87.80
2019-03-09T22:52:48.275Z,87.60
2019-03-09T22:55:17.354Z,87.20
2019-03-09T22:57:46.443Z,87.50
2019-03-09T23:00:20.830Z,87.40
2019-03-09T23:02:51.546Z,87.20
2019-03-09T23:05:20.626Z,87.50
2019-03-09T23:07:49.706Z,87.40
2019-03-09T23:10:20.690Z,87.60
2019-03-09T23:12:50.018Z,87.50
2019-03-09T23:15:19.458Z,87.80
2019-03-09T23:17:48.623Z,87.90
2019-03-09T23:20:17.698Z,88.30
2019-03-09T23:22:46.786Z,88.70
2019-03-09T23:25:15.907Z,88.50
2019-03-09T23:27:45.131Z,88.30
2019-03-09T23:30:21.478Z,88.20
2019-03-09T23:32:50.563Z,88.20
2019-03-09T23:35:20.318Z,88.20
2019-03-09T23:37:49.423Z,88.30
2019-03-09T23:40:19.758Z,88.30
2019-03-09T23:42:48.942Z,88.50
2019-03-09T23:45:20.431Z,88.80
2019-03-09T23:47:49.510Z,88.80
2019-03-09T23:50:19.073Z,88.80
2019-03-09T23:52:48.158Z,89.00
2019-03-09T23:55:22.478Z,88.90
2019-03-09T23:57:48.366Z,88.80
